Orlando, Florida
Current Conditions -  °F | °C
As of 10:53 AM on Saturday 20 Dec 2014 (Local Time) from KORL Reporting Station
Clear Clear  
Wind Chill: 72°   Ceiling: Unl
Heat Index: 72°   Visibility: 10mi
Dew Point: 61°   Wind: 5mph
Humidity: 68%   Direction: 180°S
Pressure: 30.13"   Gusts: NA
Location:  28.54°N, 81.38°W
Report Text: KORL 201553Z 18004KT 10SM CLR 22/16 A3013 RMK AO2 SLP206 T02220161
Loading
Personal Weather Stations






























Interactive Weather Map New forecast layout! Learn more

10-Day Weather Forecast

Advertisements
Track Severe Weather on mobile